Groveton, NH (03582)

6:03 PM EDT on September 02, 2015 (GMT -0400)
Village Rt 102S | | Change Station
CLOSE
Current Station
Personal Weather Station
Location: Guildhall, VT
Elevation: 866 ft
Nearby Weather Stations

Elev 866 ft 44.57 °N, 71.57 °W | Updated 4 seconds ago

Clear
Clear
82.4 °F
Feels Like 80 °F
N
1.1
Wind Variable Wind from WSW
Gusts 3.4 mph

Today
High -- | Low -- °F
--% Chance of Precip.
Yesterday
High -- | Low -- °F
Precip. -- in
6:09 AM 7:21 PM
Waning Gibbous, 77% visible
Pressure 29.91 in
Visibility 8.0 miles
Clouds Clear
Heat Index 80 °F
Dew Point Not available.
Humidity Not available.
Rainfall 0.00 in
Snow Depth Not available.
UV 1 out of 12
Pollen 8.30 out of 12
Air Quality Not available.
Flu Activity Not available.
METAR KHIE 022152Z AUTO 27003KT 8SM CLR 27/18 A2991 RMK AO2 SLP126 T02670178 TSNO
Pressure 29.91 in
Visibility 8.0 miles
Clouds Clear
Heat Index 80 °F
Dew Point Not available.
Humidity Not available.
Rainfall 0.00 in
Snow Depth Not available.
UV 1 out of 12
Pollen 8.30 out of 12
Air Quality Not available.
Flu Activity Not available.
METAR KHIE 022152Z AUTO 27003KT 8SM CLR 27/18 A2991 RMK AO2 SLP126 T02670178 TSNO

10-Day Weather Forecast

×

Almanac

Astronomy

Sep. 02, 2015 Rise Set
Actual Time
Civil Twilight
Nautical Twilight
Astronomical Twilight
Moon
Length of Visible Light
Length of Day
Tomorrow will be .
, % of the Moon is Illuminated

Today's Extremes

State Highs State Lows

Community

WunderPhotos

Upload Photos

1,851,821 photos uploaded!

WunderBlogs® & News

Nearby

Air Quality

  Air Quality AQ Index Pollutant
Not available.

Snow Depth

Station Depth Elevation

Earthquake Activity

City Distance Mag. Time & Date
Minimum magnitude displayed is 2.5.

Coastal Water Temperatures

Place Temperature

Stations

Nearby Weather Stations

Station Location Temp. Windchill Dew Point Humidity Wind Precip. Elev Updated Type